Time;durP1;ratioP1;P1;durP2;ratioP2;P2;SDS_P1;SDS_P2;PMS_P1;PMS_P2;Temp;Humidity;BMP_temperature;BMP_pressure;BME280_temperature;BME280_humidity;BME280_pressure;Samples;Min_cycle;Max_cycle;Signal;HPM_P1;HPM_P2
2022/03/20 00:02:24;;;;;;;15.25;6.05;;;;;;;-3.15;61.74;99141.34;5021816;28;20079;-61
2022/03/20 00:04:53;;;;;;;15.93;5.80;;;;;;;-3.08;61.27;99151.00;5021563;28;20057;-62
2022/03/20 00:07:19;;;;;;;17.15;5.00;;;;;;;-3.26;61.59;99125.88;5022690;28;20520;-58
2022/03/20 00:09:53;;;;;;;9.90;4.03;;;;;;;-3.29;62.09;99142.59;5023072;28;20054;-61
2022/03/20 00:12:20;;;;;;;13.23;4.47;;;;;;;-3.30;62.41;99151.75;5023155;28;20527;-55
2022/03/20 00:14:46;;;;;;;15.85;5.35;;;;;;;-3.26;62.66;99159.19;5015735;28;20091;-61
2022/03/20 00:17:14;;;;;;;14.75;5.90;;;;;;;-3.30;63.53;99154.47;5003060;28;20062;-55
2022/03/20 00:19:40;;;;;;;15.27;5.32;;;;;;;-3.13;62.61;99158.19;5003136;28;20061;-56
2022/03/20 00:22:08;;;;;;;10.73;4.90;;;;;;;-3.72;61.71;99060.72;5003209;28;20056;-62
2022/03/20 00:24:35;;;;;;;10.23;4.22;;;;;;;-3.52;61.82;99112.69;5007002;28;20053;-55
2022/03/20 00:27:01;;;;;;;9.55;4.13;;;;;;;-3.10;61.87;99157.72;5007451;28;20054;-62
2022/03/20 00:29:30;;;;;;;14.52;4.68;;;;;;;-3.21;62.28;99128.72;5007389;28;20046;-56
2022/03/20 00:31:57;;;;;;;15.80;5.53;;;;;;;-3.04;61.95;99166.81;5007355;28;20064;-62
2022/03/20 00:34:24;;;;;;;15.15;5.38;;;;;;;-3.38;61.95;99084.34;5007612;28;20050;-62
2022/03/20 00:36:50;;;;;;;16.85;4.80;;;;;;;-2.82;61.27;99152.50;5007141;28;20436;-56
2022/03/20 00:39:17;;;;;;;14.90;4.63;;;;;;;-2.83;61.91;99152.72;5021658;28;20461;-54
2022/03/20 00:41:44;;;;;;;13.45;5.35;;;;;;;-2.73;61.42;99150.25;5006664;28;20197;-62
2022/03/20 00:44:11;;;;;;;16.80;7.53;;;;;;;-2.95;61.46;99144.56;5005423;28;20053;-61
2022/03/20 00:46:38;;;;;;;25.30;9.13;;;;;;;-3.15;63.16;99141.34;5006726;28;20058;-57
2022/03/20 00:49:07;;;;;;;26.95;9.48;;;;;;;-3.13;63.46;99144.66;5021707;28;20056;-55
2022/03/20 00:51:34;;;;;;;20.15;8.20;;;;;;;-2.98;62.14;99150.44;5005415;28;20054;-58
2022/03/20 00:54:00;;;;;;;25.00;8.45;;;;;;;-2.92;61.49;99144.09;5006876;28;20045;-61
2022/03/20 00:56:27;;;;;;;25.45;8.55;;;;;;;-3.08;62.37;99155.59;5006460;28;20194;-58
2022/03/20 00:58:54;;;;;;;15.98;7.53;;;;;;;-3.38;63.85;99138.53;5006087;28;20057;-61
2022/03/20 01:01:21;;;;;;;17.30;6.43;;;;;;;-3.58;64.70;99097.38;5006777;28;20054;-57
2022/03/20 01:03:48;;;;;;;15.88;6.38;;;;;;;-3.62;64.19;99083.47;5021226;28;20062;-56
2022/03/20 01:06:17;;;;;;;14.20;4.55;;;;;;;-3.29;63.32;99137.19;5021104;28;20065;-57
2022/03/20 01:08:45;;;;;;;17.98;5.78;;;;;;;-3.57;62.80;99101.72;5006367;28;20056;-58
2022/03/20 01:11:12;;;;;;;15.82;5.40;;;;;;;-3.15;61.91;99131.31;5004929;28;20053;-55
2022/03/20 01:13:39;;;;;;;17.73;7.57;;;;;;;-3.12;61.47;99116.47;5007119;28;20050;-55
2022/03/20 01:16:06;;;;;;;13.93;6.35;;;;;;;-2.96;62.39;99132.06;5023963;28;20053;-62
2022/03/20 01:18:33;;;;;;;18.27;6.32;;;;;;;-3.27;62.23;99080.84;5024680;28;20053;-55
2022/03/20 01:21:00;;;;;;;23.52;6.32;;;;;;;-2.85;61.86;99128.56;5025493;28;20049;-60
2022/03/20 01:23:27;;;;;;;8.10;3.85;;;;;;;-3.28;61.18;99090.03;5026017;28;20377;-55
2022/03/20 01:25:54;;;;;;;11.80;3.30;;;;;;;-3.03;61.57;99136.75;5025799;28;20444;-62
2022/03/20 01:28:23;;;;;;;10.02;3.60;;;;;;;-2.95;61.12;99131.00;5026117;28;20053;-61
2022/03/20 01:30:50;;;;;;;8.98;3.67;;;;;;;-2.81;61.14;99126.22;5025861;28;20060;-61
2022/03/20 01:33:17;;;;;;;14.07;5.82;;;;;;;-2.88;61.26;99128.19;5024446;28;20073;-61
2022/03/20 01:35:45;;;;;;;11.98;4.85;;;;;;;-2.75;60.72;99117.94;5025815;28;20583;-55
2022/03/20 01:38:18;;;;;;;11.25;5.07;;;;;;;-2.72;61.34;99125.63;5026066;28;20060;-55
2022/03/20 01:40:46;;;;;;;19.55;5.18;;;;;;;-2.88;61.26;99129.03;5026047;28;20087;-61
2022/03/20 01:43:13;;;;;;;10.38;4.60;;;;;;;-3.43;61.85;99062.59;5025551;28;20049;-61
2022/03/20 01:45:40;;;;;;;8.38;4.05;;;;;;;-3.12;62.34;99121.91;5025633;28;20061;-62
2022/03/20 01:48:07;;;;;;;7.70;4.05;;;;;;;-3.13;62.47;99112.13;5023906;28;20059;-61
2022/03/20 01:50:35;;;;;;;16.50;4.85;;;;;;;-3.21;62.74;99134.94;5025609;28;20061;-55
2022/03/20 01:53:06;;;;;;;9.60;3.92;;;;;;;-3.34;62.74;99118.91;5024099;28;20141;-58
2022/03/20 01:55:33;;;;;;;12.07;4.32;;;;;;;-3.35;63.08;99111.00;5025773;28;20057;-62
2022/03/20 01:58:00;;;;;;;9.93;4.28;;;;;;;-3.24;62.56;99112.94;5025019;28;20045;-61
2022/03/20 02:00:28;;;;;;;11.13;3.88;;;;;;;-3.20;61.85;99127.66;5025491;28;20061;-61
2022/03/20 02:02:55;;;;;;;8.38;2.95;;;;;;;-3.34;62.55;99128.91;5025789;28;20581;-61
2022/03/20 02:05:23;;;;;;;13.20;3.90;;;;;;;-3.69;63.12;99062.94;5024035;28;20076;-56
2022/03/20 02:07:49;;;;;;;9.23;3.83;;;;;;;-3.38;63.32;99122.28;5025220;28;20061;-62
2022/03/20 02:10:16;;;;;;;14.85;3.95;;;;;;;-3.96;63.17;99038.13;5024875;28;20053;-55
2022/03/20 02:12:43;;;;;;;9.65;3.72;;;;;;;-3.78;62.03;99057.03;5025371;28;20079;-61
2022/03/20 02:15:13;;;;;;;9.73;3.50;;;;;;;-3.24;62.60;99123.75;5014678;28;20053;-55
2022/03/20 02:17:41;;;;;;;10.68;4.20;;;;;;;-3.25;62.26;99122.94;5005144;28;20054;-55
2022/03/20 02:20:10;;;;;;;12.77;4.78;;;;;;;-3.17;61.63;99119.06;5005235;28;20061;-54
2022/03/20 02:22:42;;;;;;;10.13;4.07;;;;;;;-3.21;62.04;99118.69;5004807;28;20050;-62
2022/03/20 02:25:10;;;;;;;7.25;2.97;;;;;;;-4.01;62.20;99012.81;5005359;28;20081;-62
2022/03/20 02:27:39;;;;;;;15.43;4.53;;;;;;;-3.28;62.73;99120.69;5004991;28;20050;-55
2022/03/20 02:30:16;;;;;;;9.93;3.95;;;;;;;-3.59;63.21;99093.03;5004903;28;20500;-61
2022/03/20 02:32:49;;;;;;;11.70;3.72;;;;;;;-3.52;64.34;99126.22;5020001;28;20053;-55
2022/03/20 02:35:18;;;;;;;29.35;7.30;;;;;;;-3.57;64.23;99112.56;5004997;28;20132;-62
2022/03/20 02:37:53;;;;;;;11.18;3.35;;;;;;;-3.56;63.87;99122.34;5004819;28;20054;-61
2022/03/20 02:40:21;;;;;;;15.00;4.55;;;;;;;-3.42;63.38;99123.81;5002540;28;20399;-62
2022/03/20 02:42:50;;;;;;;10.68;3.15;;;;;;;-3.56;64.45;99125.06;5004494;28;20133;-57
2022/03/20 02:45:30;;;;;;;9.75;3.72;;;;;;;-3.76;65.49;99119.09;5003135;28;20104;-56
2022/03/20 02:48:00;;;;;;;11.35;3.17;;;;;;;-3.91;66.47;99115.94;5004977;28;20058;-61
2022/03/20 02:50:30;;;;;;;7.70;3.22;;;;;;;-3.89;66.15;99119.25;5005037;28;20042;-61
2022/03/20 02:52:59;;;;;;;11.82;3.08;;;;;;;-4.39;66.42;99042.03;5004294;28;20052;-55
2022/03/20 02:55:37;;;;;;;9.88;3.10;;;;;;;-3.91;65.83;99116.78;5003070;28;20472;-56
2022/03/20 02:58:10;;;;;;;6.28;2.95;;;;;;;-4.06;65.74;99135.25;5004674;28;20100;-61
2022/03/20 03:00:40;;;;;;;13.20;3.88;;;;;;;-4.17;65.15;99081.91;5002928;28;20508;-56
2022/03/20 03:03:10;;;;;;;13.50;3.72;;;;;;;-3.73;62.92;99118.63;5003595;28;20058;-56
2022/03/20 03:05:40;;;;;;;10.43;3.38;;;;;;;-3.57;62.95;99117.97;5004918;28;20108;-55
2022/03/20 03:10:58;;;;;;;11.38;4.13;;;;;;;-3.51;63.15;99127.91;5004201;28;20505;-62
2022/03/20 03:13:39;;;;;;;9.52;3.83;;;;;;;-3.48;62.77;99116.59;5004128;28;20053;-55
2022/03/20 03:16:11;;;;;;;12.85;4.78;;;;;;;-3.55;63.60;99115.88;5021203;28;20068;-62
2022/03/20 03:18:40;;;;;;;11.85;4.00;;;;;;;-3.76;63.32;99097.44;5023634;28;20084;-64
2022/03/20 03:21:11;;;;;;;13.10;4.35;;;;;;;-3.97;64.35;99062.72;5023935;28;20064;-61
2022/03/20 03:23:38;;;;;;;10.15;3.78;;;;;;;-3.49;63.98;99114.94;5022138;28;20512;-56
2022/03/20 03:26:06;;;;;;;10.05;3.00;;;;;;;-3.93;62.83;99036.84;5022018;28;20060;-56
2022/03/20 03:28:36;;;;;;;10.93;4.65;;;;;;;-3.60;63.67;99113.00;5023637;28;20049;-54
2022/03/20 03:31:09;;;;;;;13.77;4.28;;;;;;;-3.64;63.84;99111.84;5023391;28;20056;-61
2022/03/20 03:36:26;;;;;;;11.85;4.38;;;;;;;-3.94;64.37;99092.03;5023613;28;20093;-55
2022/03/20 03:38:52;;;;;;;13.27;4.00;;;;;;;-3.89;65.23;99113.84;5023511;28;20060;-54
2022/03/20 03:41:19;;;;;;;14.57;4.15;;;;;;;-4.23;65.76;99111.72;5023423;28;20045;-57
2022/03/20 03:43:46;;;;;;;18.90;6.50;;;;;;;-4.75;66.72;99027.47;5021929;28;20544;-54
2022/03/20 03:46:13;;;;;;;20.88;5.20;;;;;;;-4.32;66.63;99091.44;5023458;28;20148;-54
2022/03/20 03:48:40;;;;;;;16.48;5.43;;;;;;;-4.31;66.61;99115.56;5021884;28;20438;-57
2022/03/20 03:51:06;;;;;;;43.47;15.48;;;;;;;-4.30;66.97;99121.81;5023089;28;20053;-61
2022/03/20 03:53:33;;;;;;;64.38;26.73;;;;;;;-4.13;66.37;99128.28;5021723;28;20347;-57
2022/03/20 03:56:00;;;;;;;24.67;10.63;;;;;;;-4.07;66.57;99121.97;5021949;28;20056;-61
2022/03/20 03:58:27;;;;;;;22.17;9.73;;;;;;;-4.45;65.99;99042.91;5025722;28;20064;-55
2022/03/20 04:00:53;;;;;;;23.35;9.02;;;;;;;-4.12;65.94;99108.28;5027313;28;20057;-61
2022/03/20 04:03:20;;;;;;;10.30;4.97;;;;;;;-4.14;65.85;99121.22;5026960;28;20590;-54
2022/03/20 04:05:47;;;;;;;18.00;5.25;;;;;;;-4.17;66.50;99127.09;5025724;28;20088;-54
2022/03/20 04:08:16;;;;;;;12.93;4.32;;;;;;;-4.29;66.69;99123.47;5025814;28;20049;-61
2022/03/20 04:10:43;;;;;;;16.92;5.72;;;;;;;-4.20;67.00;99143.75;5027430;28;20507;-57
2022/03/20 04:13:11;;;;;;;13.70;6.13;;;;;;;-4.13;66.11;99112.03;5027420;28;20056;-57
2022/03/20 04:15:38;;;;;;;14.23;6.55;;;;;;;-4.95;66.19;99005.19;5013743;28;20056;-55
2022/03/20 04:18:05;;;;;;;15.93;5.45;;;;;;;-4.59;65.87;99041.41;5007583;28;20394;-61
2022/03/20 04:20:32;;;;;;;19.00;7.32;;;;;;;-4.02;65.29;99128.34;5005937;28;20057;-61
2022/03/20 04:25:44;;;;;;;13.45;6.60;;;;;;;-4.13;65.98;99133.69;5007896;28;20412;-55
2022/03/20 04:28:11;;;;;;;15.75;6.40;;;;;;;-4.08;65.84;99137.38;5006020;28;20046;-57
2022/03/20 04:30:37;;;;;;;18.02;6.82;;;;;;;-3.97;65.29;99139.34;5007733;28;20054;-55
2022/03/20 04:33:04;;;;;;;15.27;6.63;;;;;;;-3.92;65.01;99125.91;5006356;28;20054;-61
2022/03/20 04:35:31;;;;;;;12.75;5.78;;;;;;;-4.09;64.70;99129.47;5007267;28;20056;-61
2022/03/20 04:38:02;;;;;;;27.30;8.90;;;;;;;-4.25;64.04;99065.16;5007460;28;20084;-55
2022/03/20 04:40:29;;;;;;;25.52;7.32;;;;;;;-3.71;63.81;99138.16;5006801;28;20050;-61
2022/03/20 04:42:55;;;;;;;24.63;9.75;;;;;;;-3.57;63.50;99123.38;5005930;28;20054;-61
2022/03/20 04:45:23;;;;;;;21.65;9.65;;;;;;;-3.87;62.62;99065.72;5005120;28;20060;-55
2022/03/20 04:58:51;;;;;;;32.90;11.88;;;;;;;-3.30;61.98;99135.50;5006461;28;20132;-55
2022/03/20 05:01:17;;;;;;;23.73;7.60;;;;;;;-3.25;61.07;99133.78;5006538;28;20049;-62
2022/03/20 05:03:44;;;;;;;27.45;8.80;;;;;;;-3.04;60.50;99134.28;5005177;28;20058;-54
2022/03/20 05:06:11;;;;;;;28.17;10.73;;;;;;;-2.96;61.49;99132.06;5006364;28;20054;-57
2022/03/20 05:08:39;;;;;;;34.25;13.45;;;;;;;-2.76;60.00;99138.00;5005185;28;20046;-55
2022/03/20 05:13:51;;;;;;;38.25;14.85;;;;;;;-2.52;58.41;99142.38;5006312;28;20554;-54
2022/03/20 05:16:18;;;;;;;34.80;15.07;;;;;;;-2.41;57.88;99114.44;5024232;28;20057;-56
2022/03/20 05:18:45;;;;;;;55.47;19.92;;;;;;;-2.29;58.03;99150.50;5025279;28;20049;-55
2022/03/20 05:21:12;;;;;;;48.28;19.00;;;;;;;-2.02;57.97;99146.25;5025774;28;20113;-57
2022/03/20 05:23:39;;;;;;;29.83;13.07;;;;;;;-2.06;57.38;99134.22;5025727;28;20049;-62
2022/03/20 05:26:06;;;;;;;27.02;12.90;;;;;;;-2.50;57.42;99066.19;5025208;28;20053;-62
2022/03/20 05:28:33;;;;;;;19.65;9.23;;;;;;;-1.76;55.83;99137.59;5025746;28;20822;-62
2022/03/20 05:31:00;;;;;;;38.42;16.77;;;;;;;-1.59;55.38;99135.75;5024358;28;20046;-62
2022/03/20 05:33:29;;;;;;;41.40;17.35;;;;;;;-1.66;55.77;99090.78;5026011;28;20053;-62
2022/03/20 05:35:56;;;;;;;30.90;13.68;;;;;;;-1.23;54.86;99106.53;5025979;28;20421;-62
2022/03/20 05:38:23;;;;;;;24.13;12.00;;;;;;;-0.97;54.58;99111.34;5025779;28;20132;-55
2022/03/20 05:41:43;;;;;;;31.73;13.70;;;;;;;-0.69;53.94;99135.75;5025175;28;20049;-62
2022/03/20 05:43:37;;;;;;;24.55;8.70;;;;;;;-0.49;51.82;99133.38;5024710;28;20055;-55
2022/03/20 05:46:04;;;;;;;27.55;10.68;;;;;;;-0.85;51.99;99072.09;5024805;28;20072;-56
2022/03/20 05:48:31;;;;;;;25.75;10.35;;;;;;;-0.13;51.75;99135.56;5025165;28;20176;-56
2022/03/20 05:50:58;;;;;;;28.23;12.93;;;;;;;0.12;50.90;99138.63;5025063;28;20049;-58
2022/03/20 05:53:24;;;;;;;27.90;11.57;;;;;;;0.40;50.74;99130.25;5023705;28;20072;-55
2022/03/20 05:58:36;;;;;;;24.02;11.00;;;;;;;0.72;48.21;99139.38;5025545;28;20422;-57
2022/03/20 06:01:03;;;;;;;22.38;8.65;;;;;;;0.90;45.55;99135.47;5024720;28;20512;-62
2022/03/20 06:03:30;;;;;;;23.63;11.50;;;;;;;1.02;47.05;99145.16;5025432;28;20057;-56
2022/03/20 06:05:57;;;;;;;24.05;10.18;;;;;;;1.17;45.97;99148.03;5024886;28;20060;-63
2022/03/20 06:08:23;;;;;;;38.67;15.13;;;;;;;1.44;46.26;99143.34;5025145;28;20056;-63
2022/03/20 06:10:50;;;;;;;27.25;11.45;;;;;;;1.67;45.62;99163.19;5025268;28;20053;-56
2022/03/20 06:13:17;;;;;;;29.58;12.55;;;;;;;1.75;44.93;99119.00;5025094;28;20522;-63
2022/03/20 06:15:46;;;;;;;20.27;8.90;;;;;;;1.97;43.92;99152.50;5011036;28;20065;-63
2022/03/20 06:18:13;;;;;;;30.65;9.45;;;;;;;2.29;43.46;99139.56;5005394;28;20065;-56
2022/03/20 06:20:40;;;;;;;24.77;10.15;;;;;;;2.27;42.79;99152.66;5004564;28;20045;-62
2022/03/20 06:23:07;;;;;;;23.33;8.32;;;;;;;2.39;42.40;99145.06;5005220;28;20061;-56
2022/03/20 06:25:34;;;;;;;8.55;4.13;;;;;;;2.67;39.22;99139.19;5005481;28;20049;-55
2022/03/20 06:28:02;;;;;;;11.15;5.20;;;;;;;2.77;39.48;99147.41;5004814;28;20092;-58
2022/03/20 06:30:33;;;;;;;14.63;6.20;;;;;;;2.93;40.33;99135.41;5005162;28;20058;-59
2022/03/20 06:33:03;;;;;;;10.82;5.30;;;;;;;2.83;39.39;99091.59;5005151;28;20046;-63
2022/03/20 06:35:30;;;;;;;29.67;10.77;;;;;;;2.95;39.12;99073.03;5004956;28;20050;-56
2022/03/20 06:37:57;;;;;;;11.40;4.97;;;;;;;3.36;38.72;99134.94;5004622;28;20057;-58
2022/03/20 06:40:23;;;;;;;13.43;5.32;;;;;;;3.44;37.31;99142.63;5004487;28;20080;-56
2022/03/20 06:42:50;;;;;;;16.60;7.47;;;;;;;3.62;36.58;99133.84;5019679;28;20061;-56
2022/03/20 06:45:20;;;;;;;11.68;5.03;;;;;;;3.70;35.80;99135.25;5004275;28;20061;-56
2022/03/20 06:47:48;;;;;;;7.10;2.67;;;;;;;3.14;35.59;99093.31;5004415;28;20503;-62
2022/03/20 06:50:15;;;;;;;7.10;2.10;;;;;;;2.45;35.78;99001.81;5004494;28;20050;-62
2022/03/20 06:52:41;;;;;;;5.80;2.42;;;;;;;3.45;34.59;99133.31;5004733;28;20534;-55
2022/03/20 06:55:12;;;;;;;3.00;1.25;;;;;;;3.37;35.13;99131.09;5002808;28;20049;-62
2022/03/20 06:57:41;;;;;;;7.63;2.80;;;;;;;3.59;35.33;99128.91;5004249;28;20049;-56
2022/03/20 07:00:09;;;;;;;6.30;2.25;;;;;;;3.37;33.92;99133.84;5004441;28;20508;-57
2022/03/20 07:02:36;;;;;;;5.57;1.92;;;;;;;3.15;33.04;99133.28;5004612;28;20057;-55
2022/03/20 07:05:03;;;;;;;8.80;3.13;;;;;;;3.31;33.26;99148.63;5004481;28;20100;-56
2022/03/20 07:07:30;;;;;;;6.75;2.28;;;;;;;3.32;33.04;99144.78;5004511;28;20054;-62
2022/03/20 07:09:56;;;;;;;5.20;2.30;;;;;;;3.51;33.27;99132.22;5003966;28;20255;-62
2022/03/20 07:12:23;;;;;;;6.18;2.25;;;;;;;2.66;33.55;99019.88;5018961;28;20056;-61
2022/03/20 07:14:50;;;;;;;6.30;2.22;;;;;;;3.45;33.45;99133.31;5009830;28;20053;-57
2022/03/20 07:17:19;;;;;;;9.73;3.17;;;;;;;3.58;33.03;99132.78;5022149;28;20065;-55
2022/03/20 07:19:46;;;;;;;5.00;2.05;;;;;;;3.52;32.37;99135.78;5023690;28;20049;-55
2022/03/20 07:22:14;;;;;;;4.82;1.85;;;;;;;3.74;32.80;99134.41;5023876;28;20053;-55
2022/03/20 07:24:46;;;;;;;5.55;2.03;;;;;;;3.43;31.89;99091.66;5023791;28;20099;-62
2022/03/20 07:29:58;;;;;;;4.53;1.52;;;;;;;3.64;31.68;99109.75;5024107;28;20060;-63
2022/03/20 07:32:25;;;;;;;4.38;1.92;;;;;;;3.58;31.67;99123.72;5022683;28;20429;-62
2022/03/20 07:34:52;;;;;;;7.78;2.25;;;;;;;3.88;31.48;99127.28;5023608;28;20065;-58
2022/03/20 07:37:21;;;;;;;4.10;1.42;;;;;;;3.86;31.73;99131.38;5021636;28;20479;-55
2022/03/20 07:39:51;;;;;;;7.03;2.35;;;;;;;3.78;31.03;99132.75;5022043;28;20050;-56
2022/03/20 07:42:19;;;;;;;6.82;2.35;;;;;;;3.97;31.53;99130.25;5023389;28;20524;-56
2022/03/20 07:44:46;;;;;;;3.33;2.05;;;;;;;4.23;30.44;99135.44;5023316;28;20053;-56
2022/03/20 07:47:21;;;;;;;5.82;2.00;;;;;;;3.94;30.67;99120.69;5021785;28;20151;-62
2022/03/20 07:49:50;;;;;;;11.35;3.28;;;;;;;3.60;30.79;99051.13;5022162;28;20049;-62
2022/03/20 07:52:18;;;;;;;4.30;1.73;;;;;;;4.23;30.14;99124.47;5023385;28;20056;-62
2022/03/20 07:54:46;;;;;;;7.35;1.90;;;;;;;4.28;30.08;99135.38;5023568;28;20060;-55
2022/03/20 07:57:13;;;;;;;8.18;2.22;;;;;;;4.36;30.49;99134.81;5022258;28;20057;-62
2022/03/20 07:59:42;;;;;;;19.92;5.20;;;;;;;4.09;29.92;99128.88;5023488;28;20080;-61
2022/03/20 08:02:08;;;;;;;14.48;4.38;;;;;;;3.98;30.61;99132.72;5023540;28;20525;-61
2022/03/20 08:04:35;;;;;;;23.02;5.20;;;;;;;4.25;30.66;99127.72;5023436;28;20049;-62
2022/03/20 08:07:03;;;;;;;9.70;1.77;;;;;;;4.38;30.40;99138.13;5023549;28;20103;-61
2022/03/20 08:09:30;;;;;;;5.40;2.17;;;;;;;4.30;30.43;99124.97;5023214;28;20049;-54
2022/03/20 08:11:57;;;;;;;5.13;2.33;;;;;;;3.91;30.93;99121.22;5022968;28;20061;-62
2022/03/20 08:14:27;;;;;;;13.50;3.65;;;;;;;3.75;31.56;99103.16;5020442;28;20060;-62
2022/03/20 08:16:54;;;;;;;4.82;1.80;;;;;;;3.95;30.04;99125.03;5001665;28;20496;-62
2022/03/20 08:19:23;;;;;;;7.97;1.98;;;;;;;3.82;30.53;99174.97;5001826;28;20145;-58
2022/03/20 08:21:50;;;;;;;3.88;1.20;;;;;;;3.88;31.14;99121.78;5017860;28;20058;-54
2022/03/20 08:24:18;;;;;;;19.45;4.90;;;;;;;3.88;31.27;99099.84;5003642;28;20102;-59
2022/03/20 08:26:45;;;;;;;8.18;2.60;;;;;;;4.10;31.06;99119.56;5018386;28;20057;-55
2022/03/20 08:29:13;;;;;;;7.75;2.53;;;;;;;4.23;30.59;99097.03;5003044;28;20060;-56
2022/03/20 08:31:46;;;;;;;3.65;1.85;;;;;;;4.15;31.26;99105.81;5002878;28;20549;-55
2022/03/20 08:34:15;;;;;;;1.60;1.08;;;;;;;3.95;31.16;99051.03;5003152;28;20112;-55
2022/03/20 08:36:42;;;;;;;8.00;3.28;;;;;;;4.64;30.38;99106.75;5003163;28;20141;-55
2022/03/20 08:39:10;;;;;;;5.50;2.15;;;;;;;4.36;30.72;99101.09;5003335;28;20427;-55
2022/03/20 08:41:37;;;;;;;7.60;2.78;;;;;;;4.65;30.39;99094.66;5002961;28;20049;-62
2022/03/20 08:44:05;;;;;;;6.90;2.75;;;;;;;4.73;30.48;99095.19;5006139;28;20061;-62
2022/03/20 08:46:32;;;;;;;11.57;3.33;;;;;;;4.75;30.50;99092.94;5006887;28;20049;-57
2022/03/20 08:49:03;;;;;;;2.92;1.55;;;;;;;4.41;30.20;99082.69;5006818;28;20164;-62
2022/03/20 08:51:31;;;;;;;3.65;1.90;;;;;;;4.38;30.44;99083.25;5007054;28;20197;-62
2022/03/20 08:53:59;;;;;;;7.00;2.78;;;;;;;4.33;30.88;99014.69;5006534;28;20054;-62
2022/03/20 08:56:26;;;;;;;4.40;1.95;;;;;;;4.55;30.08;99083.72;5007009;28;20054;-62
2022/03/20 08:58:52;;;;;;;4.13;2.00;;;;;;;4.47;30.36;99081.53;5021327;28;20060;-55
2022/03/20 09:01:21;;;;;;;3.05;1.60;;;;;;;4.28;30.46;99055.84;5005534;28;20501;-62
2022/03/20 09:03:50;;;;;;;6.90;2.08;;;;;;;4.18;30.47;99023.00;5007599;28;20049;-55
2022/03/20 09:06:18;;;;;;;10.07;3.38;;;;;;;4.91;30.27;99076.13;5006770;28;20151;-55
2022/03/20 09:08:46;;;;;;;8.05;3.58;;;;;;;4.12;30.70;99048.78;5006574;28;20500;-54
2022/03/20 09:11:13;;;;;;;10.50;3.28;;;;;;;4.18;31.60;99001.03;5021634;28;20145;-63
2022/03/20 09:13:40;;;;;;;9.07;3.00;;;;;;;4.93;30.57;99073.09;5005121;28;20136;-62
2022/03/20 09:19:07;;;;;;;5.53;2.25;;;;;;;4.05;31.02;98968.75;5025918;28;20128;-62
2022/03/20 09:21:37;;;;;;;7.28;2.95;;;;;;;4.36;30.79;99079.94;5026100;28;20065;-62
2022/03/20 09:24:05;;;;;;;6.43;3.13;;;;;;;4.24;31.44;99082.19;5024548;28;20076;-55
2022/03/20 09:26:32;;;;;;;3.13;2.20;;;;;;;3.94;32.15;99029.38;5026149;28;20435;-55
2022/03/20 09:28:59;;;;;;;10.15;3.97;;;;;;;4.59;32.38;99079.31;5025778;28;20069;-55
2022/03/20 09:31:27;;;;;;;10.70;3.75;;;;;;;4.77;32.83;99074.28;5025938;28;20077;-63
2022/03/20 09:33:54;;;;;;;9.57;3.25;;;;;;;4.49;31.77;99034.63;5025490;28;20132;-56
2022/03/20 09:36:21;;;;;;;12.02;3.78;;;;;;;5.04;31.74;99055.44;5024217;28;20060;-55
2022/03/20 09:38:49;;;;;;;14.57;4.20;;;;;;;5.14;32.44;99069.09;5025472;28;20081;-54
2022/03/20 09:41:17;;;;;;;9.27;4.07;;;;;;;5.14;32.01;99047.13;5025664;28;20049;-62
2022/03/20 09:43:45;;;;;;;6.05;2.92;;;;;;;4.97;31.79;99035.69;5025473;28;20480;-55
2022/03/20 09:46:21;;;;;;;4.35;2.13;;;;;;;5.20;31.89;99056.97;5023970;28;20060;-55
2022/03/20 09:48:48;;;;;;;7.07;3.03;;;;;;;5.34;32.85;99052.44;5025831;28;20053;-61
2022/03/20 09:51:14;;;;;;;8.38;4.07;;;;;;;4.53;32.48;98969.84;5026140;28;20056;-63
2022/03/20 09:53:41;;;;;;;9.82;4.28;;;;;;;4.64;32.78;99071.06;5025484;28;20513;-55
2022/03/20 09:56:11;;;;;;;4.22;2.05;;;;;;;4.73;33.42;99054.81;5024334;28;20167;-55
2022/03/20 09:58:39;;;;;;;7.53;2.97;;;;;;;4.81;32.78;99058.88;5025475;28;20144;-55
2022/03/20 10:01:05;;;;;;;8.57;2.92;;;;;;;4.66;33.42;98977.47;5023503;28;20053;-62
2022/03/20 10:03:32;;;;;;;3.95;2.28;;;;;;;4.83;33.05;98996.25;5024807;28;20140;-55
2022/03/20 10:06:21;;;;;;;5.93;2.92;;;;;;;5.39;33.04;99038.69;5025426;28;20053;-62
2022/03/20 10:08:56;;;;;;;12.00;4.10;;;;;;;5.33;33.17;99039.81;5024950;28;20063;-63
2022/03/20 10:11:24;;;;;;;6.72;3.45;;;;;;;5.45;32.71;99021.03;5023852;28;20056;-58
2022/03/20 10:14:23;;;;;;;8.85;3.97;;;;;;;5.48;32.68;99032.28;5025035;28;20057;-55
2022/03/20 10:17:16;;;;;;;11.65;4.65;;;;;;;5.65;32.42;99029.91;5004987;28;20591;-54
2022/03/20 10:19:42;;;;;;;12.23;2.65;;;;;;;5.26;32.57;99044.81;5004309;28;20563;-55
2022/03/20 10:22:14;;;;;;;11.77;4.82;;;;;;;5.47;32.54;99046.31;5005406;28;20058;-56
2022/03/20 10:24:48;;;;;;;3.95;2.40;;;;;;;5.18;31.69;99026.22;5004886;28;20413;-63
2022/03/20 10:27:14;;;;;;;;;;;;;;;5.17;31.97;99025.38;5005961;28;20054;-55
2022/03/20 10:29:50;;;;;;;9.18;5.45;;;;;;;5.68;31.11;99059.56;5005127;28;19925;-64
2022/03/20 10:32:18;;;;;;;7.28;2.47;;;;;;;5.35;31.33;99032.09;5005461;28;20105;-57
2022/03/20 10:35:00;;;;;;;7.57;1.67;;;;;;;5.12;31.66;99021.88;5004597;28;20054;-57
2022/03/20 10:37:46;;;;;;;8.45;3.83;;;;;;;5.43;31.56;99007.56;5004725;28;20100;-64
2022/03/20 10:40:24;;;;;;;9.65;4.50;;;;;;;5.64;31.51;99021.94;5004895;28;20053;-64
2022/03/20 10:43:14;;;;;;;5.90;2.72;;;;;;;6.02;31.04;99004.50;5004508;28;20060;-56
2022/03/20 10:45:51;;;;;;;7.05;2.15;;;;;;;6.27;30.92;99009.69;5005118;28;20061;-57
2022/03/20 10:48:31;;;;;;;7.10;4.38;;;;;;;6.58;29.05;99016.44;5004847;28;20057;-58
2022/03/20 10:50:58;;;;;;;6.43;2.78;;;;;;;6.05;28.93;98915.91;5003896;28;20050;-58
2022/03/20 10:53:25;;;;;;;10.43;3.28;;;;;;;6.57;29.08;99006.53;5003183;28;20061;-55
2022/03/20 10:56:05;;;;;;;6.88;2.85;;;;;;;5.82;27.40;98916.72;5004687;28;20358;-64
2022/03/20 10:58:37;;;;;;;7.28;3.47;;;;;;;6.26;27.66;98954.97;5003944;28;20061;-64
2022/03/20 11:01:05;;;;;;;7.15;3.35;;;;;;;6.23;27.79;98994.09;5004041;28;20049;-56
2022/03/20 11:03:37;;;;;;;7.15;2.85;;;;;;;6.16;28.39;98944.91;5004467;28;20100;-56
2022/03/20 11:06:08;;;;;;;6.80;2.90;;;;;;;5.93;27.80;98984.25;5004241;28;20050;-55
2022/03/20 11:08:37;;;;;;;10.70;3.83;;;;;;;5.86;28.07;98917.78;5004591;28;20068;-65
2022/03/20 11:11:06;;;;;;;7.45;4.05;;;;;;;5.34;28.16;98928.81;5003031;28;20054;-64
2022/03/20 11:13:38;;;;;;;11.50;4.03;;;;;;;6.04;28.62;98980.25;5002707;28;20053;-61
2022/03/20 11:16:05;;;;;;;7.25;3.22;;;;;;;5.81;28.21;98915.06;5018216;28;20244;-63
2022/03/20 11:18:35;;;;;;;13.25;4.95;;;;;;;6.06;29.13;98904.59;5022040;28;20132;-58
2022/03/20 11:21:04;;;;;;;7.38;3.35;;;;;;;6.50;29.08;98972.22;5023456;28;20056;-63
2022/03/20 11:23:33;;;;;;;6.38;2.78;;;;;;;6.74;27.79;98968.28;5023935;28;20966;-64
2022/03/20 11:26:02;;;;;;;6.22;2.40;;;;;;;6.90;27.03;98966.94;5023672;28;20516;-56
2022/03/20 11:28:42;;;;;;;9.05;3.40;;;;;;;6.72;28.09;98981.53;5022584;28;20053;-65
2022/03/20 11:31:10;;;;;;;10.07;2.70;;;;;;;6.21;28.10;98920.06;5023654;28;20053;-63
2022/03/20 11:33:37;;;;;;;9.20;3.97;;;;;;;6.71;28.29;98979.91;5022205;28;20081;-58
2022/03/20 11:36:04;;;;;;;5.80;2.42;;;;;;;6.58;27.76;98969.63;5021968;28;20220;-56
2022/03/20 11:38:35;;;;;;;6.15;2.83;;;;;;;6.90;28.73;98966.94;5022807;28;20080;-56
2022/03/20 11:41:12;;;;;;;7.40;2.67;;;;;;;7.03;27.68;98977.22;5021896;28;20156;-56
2022/03/20 11:43:43;;;;;;;4.72;3.03;;;;;;;7.25;27.37;98960.84;5023465;28;20479;-56
2022/03/20 11:46:16;;;;;;;5.93;3.03;;;;;;;6.98;28.18;98902.06;5023536;28;20057;-63
2022/03/20 11:48:45;;;;;;;8.38;3.67;;;;;;;7.18;27.83;98951.31;5023305;28;20061;-63
2022/03/20 11:51:14;;;;;;;4.38;2.40;;;;;;;7.29;28.34;98942.56;5023246;28;20052;-62
2022/03/20 11:53:41;;;;;;;7.18;2.45;;;;;;;7.34;27.98;98956.28;5023515;28;20084;-63
2022/03/20 11:56:29;;;;;;;12.45;6.05;;;;;;;7.12;28.83;98939.56;5021971;28;20065;-56
2022/03/20 11:58:56;;;;;;;5.82;2.78;;;;;;;6.33;28.28;98901.19;5023012;28;20060;-57
2022/03/20 12:01:23;;;;;;;10.15;3.88;;;;;;;6.23;29.35;98854.53;5023428;28;20057;-62
2022/03/20 12:04:07;;;;;;;6.28;3.15;;;;;;;6.99;30.04;98937.56;5023718;28;20049;-56
2022/03/20 12:06:51;;;;;;;6.43;3.42;;;;;;;7.22;28.95;98942.13;5023728;28;20061;-62
2022/03/20 12:09:36;;;;;;;6.75;3.13;;;;;;;6.65;29.81;98934.28;5021739;28;20148;-62
2022/03/20 12:12:17;;;;;;;6.65;2.88;;;;;;;6.81;29.75;98872.31;5023257;28;20076;-58